Time;durP1;ratioP1;P1;durP2;ratioP2;P2;SDS_P1;SDS_P2;PMS_P1;PMS_P2;Temp;Humidity;BMP_temperature;BMP_pressure;BME280_temperature;BME280_humidity;BME280_pressure;Samples;Min_cycle;Max_cycle;Signal;HPM_P1;HPM_P2
2021/08/26 00:00:12;;;;;;;11.17;6.50;;;15.40;97.30;;;;;;5018017;28;20226;-83
2021/08/26 00:08:06;;;;;;;9.67;6.50;;;15.30;97.30;;;;;;5037619;28;20445;-84
2021/08/26 00:10:32;;;;;;;10.03;6.63;;;15.30;97.30;;;;;;5019392;28;20419;-81
2021/08/26 00:12:59;;;;;;;9.97;6.77;;;15.30;97.30;;;;;;5018365;28;20302;-83
2021/08/26 00:15:25;;;;;;;10.40;7.13;;;15.30;97.30;;;;;;5017992;28;20457;-83
2021/08/26 00:17:50;;;;;;;10.57;7.10;;;15.20;97.30;;;;;;5016695;28;20467;-82
2021/08/26 00:20:16;;;;;;;14.03;7.73;;;15.20;97.30;;;;;;5017560;28;20177;-84
2021/08/26 00:22:41;;;;;;;15.20;7.23;;;15.20;97.30;;;;;;5017935;28;20253;-84
2021/08/26 00:25:07;;;;;;;14.07;8.67;;;15.20;97.30;;;;;;5017314;28;20172;-82
2021/08/26 00:27:34;;;;;;;13.60;8.47;;;15.20;97.30;;;;;;5017284;28;20207;-84
2021/08/26 00:30:00;;;;;;;15.17;8.40;;;15.20;97.30;;;;;;5017447;28;20513;-83
2021/08/26 00:32:25;;;;;;;15.13;9.40;;;15.10;97.30;;;;;;5017656;28;20438;-84
2021/08/26 00:34:51;;;;;;;15.67;11.03;;;15.10;97.30;;;;;;5035495;28;20196;-84
2021/08/26 00:37:17;;;;;;;17.23;10.40;;;15.10;97.30;;;;;;5036126;28;20184;-83
2021/08/26 00:39:42;;;;;;;14.53;9.30;;;15.10;97.30;;;;;;5017931;28;20188;-84
2021/08/26 00:42:08;;;;;;;16.70;9.37;;;15.10;97.30;;;;;;5017276;28;20199;-84
2021/08/26 00:44:40;;;;;;;15.50;9.80;;;15.10;97.30;;;;;;5016340;28;20603;-82
2021/08/26 00:47:06;;;;;;;13.63;9.00;;;15.20;97.30;;;;;;5016277;28;20423;-84
2021/08/26 00:49:31;;;;;;;13.30;8.83;;;15.20;97.30;;;;;;5015358;28;20976;-83
2021/08/26 00:51:58;;;;;;;14.00;7.90;;;15.20;97.30;;;;;;5033642;28;20255;-84
2021/08/26 00:54:24;;;;;;;14.83;8.97;;;15.20;97.30;;;;;;5033365;28;20656;-83
2021/08/26 00:56:49;;;;;;;16.30;9.50;;;15.20;97.30;;;;;;5034437;28;20495;-84
2021/08/26 00:59:15;;;;;;;17.60;9.90;;;15.20;97.30;;;;;;5016414;28;20568;-83
2021/08/26 01:02:21;;;;;;;17.87;9.80;;;15.20;97.30;;;;;;5016800;28;20178;-84
2021/08/26 01:04:56;;;;;;;14.87;9.00;;;15.20;97.30;;;;;;5017199;28;20435;-83
2021/08/26 01:07:28;;;;;;;17.80;9.90;;;15.20;97.30;;;;;;5017629;28;20957;-83
2021/08/26 01:10:06;;;;;;;18.80;10.67;;;15.20;97.30;;;;;;5035714;28;20424;-83
2021/08/26 01:12:32;;;;;;;17.53;10.50;;;15.10;97.30;;;;;;5016614;28;20426;-84
2021/08/26 01:14:59;;;;;;;18.73;11.00;;;15.10;97.30;;;;;;5016403;28;20467;-84
2021/08/26 01:17:30;;;;;;;12.93;9.90;;;15.10;97.30;;;;;;5014855;28;20466;-83
2021/08/26 01:20:00;;;;;;;16.20;10.50;;;15.10;97.30;;;;;;5017148;28;20454;-82
2021/08/26 01:22:27;;;;;;;18.17;11.27;;;15.10;97.30;;;;;;5015265;28;20869;-83
2021/08/26 01:24:59;;;;;;;14.20;9.50;;;15.10;97.30;;;;;;5015345;28;20925;-83
2021/08/26 01:27:28;;;;;;;9.57;6.87;;;15.10;97.30;;;;;;5015715;28;20439;-83
2021/08/26 01:29:56;;;;;;;6.33;4.40;;;15.00;97.30;;;;;;5033422;28;20915;-83
2021/08/26 01:32:22;;;;;;;6.23;3.50;;;15.00;97.30;;;;;;5015870;28;20423;-83
2021/08/26 01:34:52;;;;;;;4.10;2.50;;;14.90;97.30;;;;;;5034647;28;20455;-83
2021/08/26 01:37:19;;;;;;;3.03;2.53;;;14.90;97.30;;;;;;5016837;28;20446;-83
2021/08/26 01:39:53;;;;;;;4.63;2.50;;;14.90;97.30;;;;;;5016580;28;20419;-82
2021/08/26 01:42:25;;;;;;;3.43;2.43;;;14.90;97.30;;;;;;5015925;28;20505;-83
2021/08/26 01:44:54;;;;;;;6.73;2.60;;;14.90;97.30;;;;;;5034594;28;20412;-83
2021/08/26 01:47:21;;;;;;;6.33;2.80;;;14.80;97.30;;;;;;5015095;28;20472;-83
2021/08/26 01:49:48;;;;;;;4.27;2.30;;;14.90;97.30;;;;;;4996877;28;20865;-83
2021/08/26 01:52:16;;;;;;;2.73;2.10;;;14.90;97.30;;;;;;5005619;28;20976;-83
2021/08/26 01:54:57;;;;;;;3.70;2.40;;;14.90;97.30;;;;;;5014700;28;20443;-83
2021/08/26 01:57:27;;;;;;;3.97;2.30;;;14.90;97.30;;;;;;5032973;28;20964;-83
2021/08/26 01:59:53;;;;;;;5.90;2.37;;;14.90;97.30;;;;;;5015577;28;20878;-83
2021/08/26 02:02:19;;;;;;;4.20;2.50;;;14.90;97.30;;;;;;5015305;28;20420;-83
2021/08/26 02:04:45;;;;;;;4.50;2.50;;;14.90;97.30;;;;;;5033960;28;20909;-83
2021/08/26 02:07:11;;;;;;;3.47;2.80;;;14.90;97.30;;;;;;5016710;28;20426;-83
2021/08/26 02:09:36;;;;;;;4.67;2.77;;;14.90;97.30;;;;;;5016602;28;20230;-83
2021/08/26 02:12:02;;;;;;;5.23;2.53;;;14.90;97.30;;;;;;5033069;28;20572;-83
2021/08/26 02:14:28;;;;;;;2.97;2.30;;;14.90;97.30;;;;;;5015552;28;20223;-83
2021/08/26 02:16:53;;;;;;;4.17;2.70;;;14.90;97.30;;;;;;5015578;28;20551;-83
2021/08/26 02:19:19;;;;;;;5.30;3.03;;;14.90;97.30;;;;;;5015090;28;20239;-83
2021/08/26 02:21:44;;;;;;;5.33;2.80;;;14.90;97.30;;;;;;5013988;28;20176;-83
2021/08/26 02:24:10;;;;;;;2.90;2.40;;;14.90;97.30;;;;;;5013765;28;20177;-83
2021/08/26 02:26:36;;;;;;;7.17;2.57;;;14.80;97.30;;;;;;5014422;28;20181;-83
2021/08/26 02:29:03;;;;;;;5.43;3.00;;;14.90;97.30;;;;;;5014562;28;20192;-83
2021/08/26 02:31:28;;;;;;;3.47;2.60;;;14.80;97.30;;;;;;5014203;28;20419;-83
2021/08/26 02:33:54;;;;;;;9.80;3.07;;;14.80;97.30;;;;;;5015113;28;21053;-83
2021/08/26 02:36:21;;;;;;;5.33;2.47;;;14.80;97.30;;;;;;5016017;28;20184;-83
2021/08/26 02:38:47;;;;;;;6.20;2.93;;;14.80;97.30;;;;;;5015062;28;20435;-83
2021/08/26 02:41:12;;;;;;;11.73;3.50;;;14.80;97.30;;;;;;5015923;28;20810;-84
2021/08/26 02:43:38;;;;;;;4.97;3.07;;;14.80;97.30;;;;;;5014299;28;20590;-83
2021/08/26 02:46:03;;;;;;;14.37;3.87;;;14.80;97.30;;;;;;5014133;28;20180;-83
2021/08/26 02:48:29;;;;;;;7.30;3.27;;;14.80;97.30;;;;;;5031498;28;20200;-83
2021/08/26 02:50:54;;;;;;;8.50;3.70;;;14.80;97.30;;;;;;5013804;28;20268;-83
2021/08/26 02:53:20;;;;;;;9.07;3.63;;;14.80;97.30;;;;;;5013757;28;20205;-83
2021/08/26 02:55:45;;;;;;;6.67;2.53;;;14.80;97.30;;;;;;5014085;28;20612;-83
2021/08/26 02:58:11;;;;;;;8.07;3.50;;;14.80;97.30;;;;;;5013228;28;20631;-83
2021/08/26 03:00:36;;;;;;;5.30;2.70;;;14.80;97.30;;;;;;4994048;28;20199;-83
2021/08/26 03:03:02;;;;;;;7.07;3.30;;;14.80;97.30;;;;;;5012291;28;20296;-83
2021/08/26 03:05:27;;;;;;;11.47;3.50;;;14.80;97.30;;;;;;4995386;28;20185;-83
2021/08/26 03:07:56;;;;;;;7.20;2.53;;;14.70;97.30;;;;;;4996032;28;20640;-83
2021/08/26 03:10:22;;;;;;;6.63;2.90;;;14.70;97.30;;;;;;4997333;28;20674;-84
2021/08/26 03:12:48;;;;;;;4.90;2.70;;;14.70;97.30;;;;;;5014034;28;20431;-83
2021/08/26 03:15:13;;;;;;;5.30;2.83;;;14.70;97.30;;;;;;5031324;28;20426;-83
2021/08/26 03:17:39;;;;;;;8.87;2.87;;;14.70;97.30;;;;;;5030955;28;20224;-83
2021/08/26 03:20:05;;;;;;;9.87;3.17;;;14.70;97.30;;;;;;5013636;28;20184;-83
2021/08/26 03:22:30;;;;;;;4.67;2.60;;;14.70;97.30;;;;;;5012416;28;20556;-83
2021/08/26 03:24:56;;;;;;;7.33;2.90;;;14.70;97.30;;;;;;5013790;28;20930;-83
2021/08/26 03:27:21;;;;;;;3.93;2.80;;;14.70;97.30;;;;;;5013515;28;20199;-83
2021/08/26 03:29:47;;;;;;;5.20;3.37;;;14.70;97.30;;;;;;5013529;28;20239;-83
2021/08/26 03:32:12;;;;;;;6.73;2.90;;;14.70;97.30;;;;;;5013998;28;20182;-83
2021/08/26 03:34:38;;;;;;;7.33;3.10;;;14.60;97.30;;;;;;5015440;28;20212;-83
2021/08/26 03:37:03;;;;;;;5.50;3.10;;;14.60;97.30;;;;;;5033396;28;20173;-83
2021/08/26 03:39:29;;;;;;;7.10;2.93;;;14.60;97.30;;;;;;5033845;28;20606;-83
2021/08/26 03:41:54;;;;;;;8.30;3.30;;;14.50;97.30;;;;;;5017238;28;20172;-83
2021/08/26 03:44:20;;;;;;;4.87;2.60;;;14.50;97.30;;;;;;5013541;28;20311;-83
2021/08/26 03:46:45;;;;;;;15.73;3.90;;;14.50;97.30;;;;;;5030930;28;20229;-81
2021/08/26 03:49:11;;;;;;;7.80;3.20;;;14.50;97.30;;;;;;5013357;28;20196;-83
2021/08/26 03:51:36;;;;;;;14.93;4.60;;;14.50;97.30;;;;;;5013552;28;20192;-83
2021/08/26 03:54:02;;;;;;;10.33;3.40;;;14.50;97.30;;;;;;5031115;28;20687;-82
2021/08/26 03:56:28;;;;;;;13.87;3.97;;;14.50;97.30;;;;;;5013177;28;20183;-83
2021/08/26 03:58:53;;;;;;;14.83;4.10;;;14.50;97.30;;;;;;5013241;28;20211;-82
2021/08/26 04:01:19;;;;;;;10.20;3.20;;;14.40;97.30;;;;;;5013413;28;20173;-83
2021/08/26 04:03:44;;;;;;;11.00;3.57;;;14.50;97.30;;;;;;5014453;28;20216;-83
2021/08/26 04:06:10;;;;;;;6.20;3.53;;;14.40;97.30;;;;;;5014893;28;20720;-82
2021/08/26 04:08:35;;;;;;;12.93;3.97;;;14.40;97.30;;;;;;5014466;28;20236;-83
2021/08/26 04:11:02;;;;;;;16.50;3.77;;;14.40;97.30;;;;;;5013771;28;20181;-82
2021/08/26 04:13:27;;;;;;;8.17;3.43;;;14.40;97.30;;;;;;5013020;28;20579;-83
2021/08/26 04:15:53;;;;;;;13.77;3.80;;;14.40;97.30;;;;;;5013348;28;20423;-83
2021/08/26 04:18:18;;;;;;;8.60;4.10;;;14.50;97.30;;;;;;5012866;28;20312;-83
2021/08/26 04:20:44;;;;;;;13.93;3.43;;;14.50;97.30;;;;;;5012671;28;20647;-83
2021/08/26 04:23:10;;;;;;;10.93;3.63;;;14.40;97.30;;;;;;5012837;28;20185;-83
2021/08/26 04:25:35;;;;;;;10.77;4.17;;;14.40;97.30;;;;;;5014251;28;20188;-83
2021/08/26 04:28:01;;;;;;;7.27;3.57;;;14.40;97.30;;;;;;5033891;28;20200;-84
2021/08/26 04:30:26;;;;;;;12.90;4.47;;;14.40;97.30;;;;;;5034253;28;20187;-83
2021/08/26 04:32:52;;;;;;;11.87;3.90;;;14.40;97.30;;;;;;5017732;28;20651;-83
2021/08/26 04:35:17;;;;;;;9.23;3.30;;;14.40;97.30;;;;;;5017948;28;20675;-83
2021/08/26 04:37:43;;;;;;;14.30;4.53;;;14.40;97.30;;;;;;5018492;28;20247;-83
2021/08/26 04:40:09;;;;;;;17.50;4.50;;;14.40;97.30;;;;;;5017286;28;20278;-84
2021/08/26 04:42:34;;;;;;;10.70;3.87;;;14.40;97.30;;;;;;5016092;28;20230;-83
2021/08/26 04:45:00;;;;;;;19.73;5.30;;;14.50;97.30;;;;;;5016625;28;20423;-83
2021/08/26 04:47:25;;;;;;;13.40;4.10;;;14.50;97.30;;;;;;5015868;28;20558;-83
2021/08/26 04:49:51;;;;;;;16.43;4.50;;;14.50;97.30;;;;;;5003398;28;20181;-83
2021/08/26 04:52:16;;;;;;;13.30;4.30;;;14.50;97.30;;;;;;5015895;28;20213;-83
2021/08/26 04:54:42;;;;;;;10.77;4.77;;;14.50;97.30;;;;;;5015929;28;20212;-83
2021/08/26 04:57:07;;;;;;;10.77;3.80;;;14.50;97.30;;;;;;5015705;28;20181;-84
2021/08/26 04:59:33;;;;;;;10.77;4.20;;;14.50;97.30;;;;;;5013218;28;20262;-84
2021/08/26 05:01:58;;;;;;;10.73;4.17;;;14.50;97.30;;;;;;5016106;28;20185;-84
2021/08/26 05:04:24;;;;;;;15.97;4.10;;;14.50;97.30;;;;;;4997669;28;20185;-84
2021/08/26 05:06:52;;;;;;;10.37;3.80;;;14.50;97.30;;;;;;4997964;28;20204;-84
2021/08/26 05:09:18;;;;;;;8.47;4.00;;;14.50;97.30;;;;;;4997518;28;20739;-84
2021/08/26 05:11:45;;;;;;;13.43;4.27;;;14.50;97.30;;;;;;4996976;28;20426;-84
2021/08/26 05:14:10;;;;;;;11.03;3.90;;;14.50;97.30;;;;;;5014182;28;20555;-84
2021/08/26 05:16:36;;;;;;;16.50;4.37;;;14.50;97.30;;;;;;4996979;28;20444;-83
2021/08/26 05:19:01;;;;;;;12.00;4.00;;;14.50;97.30;;;;;;4996121;28;20233;-84
2021/08/26 05:21:27;;;;;;;10.10;4.20;;;14.50;97.30;;;;;;4995558;28;20181;-83
2021/08/26 05:23:53;;;;;;;23.23;5.03;;;14.50;97.30;;;;;;4995625;28;20627;-83
2021/08/26 05:26:18;;;;;;;15.43;4.77;;;14.50;97.30;;;;;;4996213;28;20200;-83
2021/08/26 05:28:46;;;;;;;22.30;3.90;;;14.50;97.30;;;;;;4995638;28;20550;-83
2021/08/26 05:31:11;;;;;;;15.10;4.90;;;14.60;97.30;;;;;;4996707;28;20238;-83
2021/08/26 05:33:37;;;;;;;26.53;3.97;;;14.60;97.30;;;;;;4996746;28;20869;-83
2021/08/26 05:36:02;;;;;;;13.43;4.93;;;14.60;97.30;;;;;;4997196;28;20165;-83
2021/08/26 05:38:33;;;;;;;10.97;3.93;;;14.60;97.30;;;;;;4997578;28;20197;-83
2021/08/26 05:40:59;;;;;;;18.77;5.30;;;14.60;97.30;;;;;;4995938;28;20170;-83
2021/08/26 05:43:24;;;;;;;12.93;4.93;;;14.60;97.30;;;;;;4995838;28;20412;-83
2021/08/26 05:45:50;;;;;;;11.73;4.40;;;14.60;97.30;;;;;;4995739;28;20601;-83
2021/08/26 05:48:16;;;;;;;12.10;4.17;;;14.60;97.30;;;;;;5000832;28;20200;-83
2021/08/26 05:50:41;;;;;;;8.83;4.60;;;14.60;97.30;;;;;;5032485;28;20567;-84
2021/08/26 05:53:07;;;;;;;14.10;4.30;;;14.60;97.30;;;;;;5014875;28;20181;-83
2021/08/26 05:55:32;;;;;;;21.53;4.80;;;14.60;97.30;;;;;;5014831;28;20246;-83
2021/08/26 05:57:58;;;;;;;10.93;3.73;;;14.60;97.30;;;;;;5032468;28;20204;-83
2021/08/26 06:00:23;;;;;;;10.87;5.07;;;14.60;97.30;;;;;;5015260;28;20176;-83
2021/08/26 06:02:49;;;;;;;20.27;4.90;;;14.60;97.30;;;;;;5015422;28;20185;-83
2021/08/26 06:05:15;;;;;;;20.30;4.47;;;14.60;97.30;;;;;;5016540;28;20178;-84
2021/08/26 06:07:40;;;;;;;15.30;5.20;;;14.60;97.30;;;;;;5034048;28;20188;-84
2021/08/26 06:10:10;;;;;;;10.23;4.00;;;14.60;97.30;;;;;;5017512;28;20169;-84
2021/08/26 06:12:43;;;;;;;11.33;4.97;;;14.60;97.30;;;;;;5018049;28;20176;-83
2021/08/26 06:15:10;;;;;;;8.07;4.97;;;14.60;97.30;;;;;;5015749;28;20473;-83
2021/08/26 06:17:35;;;;;;;18.73;4.83;;;14.60;97.30;;;;;;5014281;28;21052;-84
2021/08/26 06:20:04;;;;;;;16.40;5.40;;;14.70;97.30;;;;;;5032193;28;20499;-84
2021/08/26 06:22:30;;;;;;;15.13;4.30;;;14.70;97.30;;;;;;5014825;28;20470;-84
2021/08/26 06:24:55;;;;;;;12.67;4.23;;;14.70;97.30;;;;;;5014253;28;20416;-84
2021/08/26 06:27:21;;;;;;;14.23;4.80;;;14.70;97.30;;;;;;5014620;28;20564;-84
2021/08/26 06:29:46;;;;;;;21.37;5.57;;;14.70;97.30;;;;;;5014857;28;20181;-84
2021/08/26 06:32:12;;;;;;;29.77;6.63;;;14.80;97.30;;;;;;5014832;28;20673;-84
2021/08/26 06:34:37;;;;;;;23.47;4.97;;;14.80;97.30;;;;;;5014233;28;20208;-84
2021/08/26 06:37:03;;;;;;;11.63;4.70;;;14.80;97.30;;;;;;5017259;28;20172;-84
2021/08/26 06:39:28;;;;;;;19.00;5.30;;;14.80;97.30;;;;;;5031034;28;20176;-84
2021/08/26 06:41:55;;;;;;;16.73;6.47;;;14.90;97.30;;;;;;5031667;28;20195;-84
2021/08/26 06:44:20;;;;;;;17.97;5.90;;;14.90;97.30;;;;;;5027051;28;20648;-83
2021/08/26 06:46:49;;;;;;;21.90;5.87;;;14.90;97.30;;;;;;5014371;28;20439;-84
2021/08/26 06:49:15;;;;;;;20.27;6.27;;;14.90;97.30;;;;;;5014784;28;20209;-83
2021/08/26 06:51:40;;;;;;;12.37;4.77;;;14.90;97.30;;;;;;5016105;28;20474;-84
2021/08/26 06:54:06;;;;;;;11.17;5.23;;;14.90;97.30;;;;;;5002325;28;20234;-83
2021/08/26 06:56:32;;;;;;;19.73;5.13;;;14.90;97.30;;;;;;5004356;28;20166;-81
2021/08/26 06:58:57;;;;;;;10.90;4.90;;;15.00;97.30;;;;;;4997402;28;20439;-84
2021/08/26 07:01:23;;;;;;;15.63;5.20;;;15.00;97.30;;;;;;5001014;28;20203;-81
2021/08/26 07:03:51;;;;;;;19.20;5.60;;;15.00;97.30;;;;;;5006454;28;20198;-81
2021/08/26 07:06:17;;;;;;;24.20;6.17;;;15.10;97.30;;;;;;5000866;28;20292;-81
2021/08/26 07:08:43;;;;;;;12.77;5.13;;;15.10;97.30;;;;;;4995342;28;20464;-81
2021/08/26 07:11:09;;;;;;;11.83;4.77;;;15.10;97.30;;;;;;4995340;28;20424;-81
2021/08/26 07:13:34;;;;;;;13.47;5.80;;;15.20;97.30;;;;;;5005536;28;21014;-81
2021/08/26 07:16:00;;;;;;;13.37;5.00;;;15.20;97.30;;;;;;4994787;28;20416;-81
2021/08/26 07:18:25;;;;;;;18.10;5.60;;;15.20;97.30;;;;;;5008067;28;20592;-81
2021/08/26 07:20:51;;;;;;;14.37;4.90;;;15.20;97.30;;;;;;5013946;28;20419;-81
2021/08/26 07:23:17;;;;;;;11.13;5.57;;;15.30;97.30;;;;;;5010504;28;20558;-80
2021/08/26 07:25:43;;;;;;;12.03;5.10;;;15.30;97.30;;;;;;4994855;28;20188;-83
2021/08/26 07:28:09;;;;;;;18.00;5.67;;;15.30;97.30;;;;;;5028888;28;20212;-81
2021/08/26 07:30:35;;;;;;;19.23;4.80;;;15.30;97.30;;;;;;5015786;28;20433;-81
2021/08/26 07:33:01;;;;;;;14.17;5.23;;;15.40;97.30;;;;;;5014469;28;20415;-81
2021/08/26 07:35:26;;;;;;;9.93;4.60;;;15.40;97.30;;;;;;5013736;28;20676;-82
2021/08/26 07:37:52;;;;;;;10.63;4.70;;;15.40;97.30;;;;;;4995679;28;20232;-84
2021/08/26 07:40:17;;;;;;;16.40;4.93;;;15.50;97.30;;;;;;4995038;28;20640;-82
2021/08/26 07:42:43;;;;;;;19.57;4.93;;;15.50;97.30;;;;;;5024760;28;20183;-82
2021/08/26 07:45:09;;;;;;;11.17;4.03;;;15.50;97.30;;;;;;5012938;28;20188;-81
2021/08/26 07:47:36;;;;;;;16.33;4.77;;;15.50;97.30;;;;;;5013421;28;20279;-81
2021/08/26 07:50:01;;;;;;;17.83;4.47;;;15.50;97.30;;;;;;5030976;28;20775;-81
2021/08/26 07:52:27;;;;;;;15.90;4.57;;;15.50;97.30;;;;;;5013961;28;20423;-82
2021/08/26 07:54:52;;;;;;;10.13;4.10;;;15.50;97.30;;;;;;4999355;28;20658;-82
2021/08/26 07:57:18;;;;;;;18.50;5.07;;;15.60;97.30;;;;;;5005037;28;20192;-82
2021/08/26 07:59:43;;;;;;;15.73;5.00;;;15.60;97.30;;;;;;5032824;28;20177;-82
2021/08/26 08:02:09;;;;;;;14.73;3.93;;;15.70;97.30;;;;;;5016683;28;20172;-82
2021/08/26 08:04:36;;;;;;;15.70;4.40;;;15.80;97.30;;;;;;5031661;28;20660;-82
2021/08/26 08:07:02;;;;;;;13.20;4.30;;;15.80;97.30;;;;;;5017605;28;20184;-82
2021/08/26 08:09:27;;;;;;;21.17;5.37;;;15.90;97.30;;;;;;5034575;28;20840;-84
2021/08/26 08:11:53;;;;;;;18.60;5.37;;;15.90;97.30;;;;;;5034376;28;20662;-82
2021/08/26 08:14:18;;;;;;;12.33;3.77;;;15.90;97.30;;;;;;5016506;28;20200;-82
2021/08/26 08:16:44;;;;;;;13.10;4.13;;;15.90;97.30;;;;;;5017154;28;20169;-82
2021/08/26 08:19:10;;;;;;;9.90;3.97;;;16.00;97.30;;;;;;5016569;28;20627;-81
2021/08/26 08:21:36;;;;;;;11.23;4.87;;;16.00;97.30;;;;;;5017075;28;20200;-82
2021/08/26 08:24:02;;;;;;;15.87;5.40;;;16.10;97.30;;;;;;5018217;28;20430;-84
2021/08/26 08:26:27;;;;;;;16.40;4.57;;;16.10;97.30;;;;;;5016741;28;20688;-81
2021/08/26 08:28:53;;;;;;;10.90;4.50;;;16.10;97.30;;;;;;5012368;28;20274;-81
2021/08/26 08:31:19;;;;;;;12.80;4.80;;;16.10;97.30;;;;;;5008871;28;20383;-82
2021/08/26 08:33:46;;;;;;;9.73;4.30;;;16.00;97.30;;;;;;5026100;28;20505;-82
2021/08/26 08:36:12;;;;;;;16.43;4.43;;;16.00;97.30;;;;;;5005969;28;20166;-81
2021/08/26 08:38:38;;;;;;;12.40;5.10;;;16.10;97.30;;;;;;5014979;28;21020;-80
2021/08/26 08:41:03;;;;;;;9.90;4.20;;;16.10;97.30;;;;;;5013959;28;20813;-81
2021/08/26 08:43:29;;;;;;;10.63;4.80;;;16.20;97.30;;;;;;5014057;28;20619;-81
2021/08/26 08:45:55;;;;;;;9.30;3.80;;;16.20;97.30;;;;;;4996925;28;20181;-82
2021/08/26 08:48:22;;;;;;;9.97;4.10;;;16.20;97.30;;;;;;5014191;28;20197;-82
2021/08/26 08:50:49;;;;;;;8.90;4.40;;;16.30;97.30;;;;;;5014313;28;20932;-81
2021/08/26 08:53:16;;;;;;;7.73;4.70;;;16.30;97.30;;;;;;5014287;28;20434;-81
2021/08/26 08:55:43;;;;;;;12.23;4.50;;;16.40;97.30;;;;;;5014145;28;20423;-81
2021/08/26 08:58:10;;;;;;;11.83;5.37;;;16.40;97.30;;;;;;5003265;28;20895;-80
2021/08/26 09:00:36;;;;;;;12.00;4.63;;;16.40;97.30;;;;;;4997335;28;20416;-82
2021/08/26 09:03:02;;;;;;;12.67;5.07;;;16.50;97.30;;;;;;4996892;28;20420;-82
2021/08/26 09:05:54;;;;;;;11.90;4.33;;;16.50;97.30;;;;;;4997736;28;20420;-81
2021/08/26 09:08:22;;;;;;;8.47;4.37;;;16.50;97.30;;;;;;5001893;28;20212;-84
2021/08/26 09:10:49;;;;;;;13.60;3.90;;;16.50;97.30;;;;;;5015444;28;20433;-81
2021/08/26 09:13:14;;;;;;;9.20;3.83;;;16.50;97.30;;;;;;5015333;28;20408;-81
2021/08/26 09:15:46;;;;;;;15.17;4.07;;;16.50;97.30;;;;;;5015316;28;20411;-82
2021/08/26 09:18:17;;;;;;;10.07;4.13;;;16.60;97.30;;;;;;5014631;28;20396;-82
2021/08/26 09:20:55;;;;;;;8.43;4.60;;;16.60;97.30;;;;;;5015688;28;20430;-81
2021/08/26 09:23:22;;;;;;;18.63;4.60;;;16.70;97.30;;;;;;5034096;28;20506;-81
2021/08/26 09:25:49;;;;;;;9.23;4.43;;;16.70;97.30;;;;;;5034884;28;20898;-81
2021/08/26 09:28:32;;;;;;;12.10;4.77;;;16.80;97.30;;;;;;5016494;28;20465;-82
2021/08/26 09:31:17;;;;;;;12.70;4.33;;;16.80;97.30;;;;;;5034405;28;20439;-82
2021/08/26 09:33:50;;;;;;;11.53;4.37;;;16.80;97.30;;;;;;5016174;28;20458;-81
2021/08/26 09:36:20;;;;;;;8.80;4.03;;;16.90;97.30;;;;;;5034106;28;20414;-84
2021/08/26 09:39:07;;;;;;;9.90;5.00;;;16.90;97.30;;;;;;5014597;28;20863;-82
2021/08/26 09:41:49;;;;;;;10.27;3.80;;;16.90;97.30;;;;;;5012228;28;20498;-82
2021/08/26 09:44:24;;;;;;;9.33;4.00;;;16.90;97.30;;;;;;5000451;28;20476;-82
2021/08/26 09:46:51;;;;;;;8.93;4.00;;;17.00;97.30;;;;;;5005220;28;20473;-82
2021/08/26 09:49:19;;;;;;;11.33;4.53;;;17.00;97.30;;;;;;5026262;28;20446;-82
2021/08/26 09:52:01;;;;;;;9.90;5.07;;;17.10;97.30;;;;;;4999319;28;20427;-81
2021/08/26 09:54:35;;;;;;;7.40;3.60;;;17.10;97.30;;;;;;5010047;28;20538;-82
2021/08/26 09:57:02;;;;;;;11.60;3.40;;;17.20;97.30;;;;;;5005005;28;20451;-81
2021/08/26 09:59:42;;;;;;;15.00;4.33;;;17.30;97.30;;;;;;5013628;28;20908;-82
2021/08/26 10:02:08;;;;;;;12.30;3.70;;;17.30;97.30;;;;;;4996133;28;20418;-82
2021/08/26 10:04:34;;;;;;;31.33;4.60;;;17.40;97.30;;;;;;5003301;28;20522;-82
2021/08/26 10:07:00;;;;;;;10.93;4.93;;;17.40;97.30;;;;;;5006447;28;20507;-81
2021/08/26 10:09:26;;;;;;;10.20;3.90;;;17.40;97.30;;;;;;4999918;28;20435;-81
2021/08/26 10:11:53;;;;;;;7.53;4.23;;;17.40;97.30;;;;;;4996620;28;20318;-82
2021/08/26 10:14:18;;;;;;;8.03;4.03;;;17.30;97.30;;;;;;5007798;28;20464;-81
2021/08/26 10:16:44;;;;;;;11.17;4.00;;;17.30;97.30;;;;;;4999310;28;21012;-80
2021/08/26 10:19:14;;;;;;;8.20;3.70;;;17.30;97.30;;;;;;5014007;28;20232;-82
2021/08/26 10:21:40;;;;;;;11.43;4.27;;;17.30;97.30;;;;;;5004970;28;20429;-82
2021/08/26 10:24:06;;;;;;;10.67;3.20;;;17.40;97.30;;;;;;5002420;28;20473;-82
2021/08/26 10:26:32;;;;;;;11.73;5.13;;;17.40;97.30;;;;;;5012243;28;20269;-82
2021/08/26 10:28:58;;;;;;;10.60;3.83;;;17.40;97.30;;;;;;5025920;28;20454;-81
2021/08/26 10:31:33;;;;;;;13.10;3.97;;;17.50;97.30;;;;;;5000124;28;20682;-81
2021/08/26 10:34:19;;;;;;;7.90;3.53;;;17.60;97.30;;;;;;5023123;28;20512;-82
2021/08/26 10:37:18;;;;;;;15.80;3.77;;;17.60;97.30;;;;;;5014327;28;20788;-80
2021/08/26 10:39:44;;;;;;;6.17;3.20;;;17.60;97.30;;;;;;5010584;28;20408;-82
2021/08/26 10:42:28;;;;;;;9.83;4.00;;;17.60;97.30;;;;;;5018488;28;20508;-81
2021/08/26 10:45:12;;;;;;;7.93;3.27;;;17.70;97.30;;;;;;5001398;28;20428;-82
2021/08/26 10:47:51;;;;;;;7.77;3.93;;;17.70;97.30;;;;;;5007660;28;20447;-84
2021/08/26 10:50:24;;;;;;;11.73;4.07;;;17.70;97.30;;;;;;5003371;28;20423;-81
2021/08/26 10:53:08;;;;;;;11.00;3.63;;;17.70;97.30;;;;;;5004030;28;20421;-81
2021/08/26 10:55:46;;;;;;;10.30;3.23;;;17.70;97.30;;;;;;5011188;28;20467;-82
2021/08/26 10:58:21;;;;;;;10.93;3.67;;;17.80;97.30;;;;;;4998631;28;20436;-84
2021/08/26 11:01:06;;;;;;;8.00;3.67;;;17.80;97.30;;;;;;5004425;28;20788;-82
2021/08/26 11:03:34;;;;;;;12.40;3.93;;;18.00;97.30;;;;;;5013190;28;20423;-81
2021/08/26 11:06:02;;;;;;;9.83;4.07;;;18.00;97.30;;;;;;4999095;28;20550;-81
2021/08/26 11:08:29;;;;;;;7.33;3.83;;;18.10;97.30;;;;;;5004385;28;20458;-82
2021/08/26 11:10:56;;;;;;;8.70;3.23;;;18.10;97.30;;;;;;5011452;28;20435;-81
2021/08/26 11:13:32;;;;;;;8.07;2.73;;;18.10;97.30;;;;;;5014051;28;20459;-82
2021/08/26 11:16:23;;;;;;;11.13;3.10;;;18.10;96.90;;;;;;5011602;28;20781;-80
2021/08/26 11:18:53;;;;;;;4.73;3.00;;;18.10;97.00;;;;;;4998875;28;20460;-81
2021/08/26 11:21:40;;;;;;;5.83;2.70;;;18.10;97.30;;;;;;4992902;28;20567;-81
2021/08/26 11:24:06;;;;;;;6.23;2.40;;;18.10;97.30;;;;;;4998794;28;20419;-81
2021/08/26 11:26:52;;;;;;;5.70;2.53;;;18.10;96.40;;;;;;5002018;28;20949;-81
2021/08/26 11:29:17;;;;;;;9.27;3.37;;;18.10;97.30;;;;;;4997294;28;20444;-84
2021/08/26 11:31:52;;;;;;;9.27;3.20;;;18.10;97.30;;;;;;5003676;28;20428;-84
2021/08/26 11:34:19;;;;;;;5.40;3.30;;;18.20;97.30;;;;;;4992102;28;20193;-82
2021/08/26 11:37:00;;;;;;;11.40;3.17;;;18.30;97.30;;;;;;4998494;28;20405;-82
2021/08/26 11:39:28;;;;;;;7.37;3.40;;;18.40;97.30;;;;;;4996040;28;20425;-82
2021/08/26 11:41:54;;;;;;;7.00;4.30;;;18.60;97.30;;;;;;4994393;28;20413;-81
2021/08/26 11:44:20;;;;;;;8.23;2.87;;;18.90;97.30;;;;;;5004175;28;20420;-81
2021/08/26 11:46:45;;;;;;;5.57;2.87;;;19.10;97.30;;;;;;5015207;28;20189;-81
2021/08/26 11:49:11;;;;;;;8.43;2.67;;;19.40;95.80;;;;;;4995634;28;20197;-81
2021/08/26 11:51:37;;;;;;;7.93;2.60;;;19.50;91.70;;;;;;5012560;28;20563;-84
2021/08/26 11:54:16;;;;;;;8.60;2.60;;;19.50;91.70;;;;;;5001233;28;20207;-82
2021/08/26 11:56:51;;;;;;;7.60;2.93;;;19.50;94.40;;;;;;5008714;28;20177;-81
2021/08/26 11:59:28;;;;;;;7.60;3.20;;;19.60;95.50;;;;;;5006809;28;20428;-81
2021/08/26 12:02:24;;;;;;;4.70;2.50;;;19.80;93.70;;;;;;5002476;28;20428;-82
2021/08/26 12:04:57;;;;;;;4.37;2.73;;;20.00;94.00;;;;;;5016555;28;20408;-84
2021/08/26 12:07:26;;;;;;;3.53;1.73;;;20.00;91.30;;;;;;5013902;28;20436;-84
2021/08/26 12:09:53;;;;;;;3.37;1.97;;;19.90;91.20;;;;;;5014441;28;20416;-82
2021/08/26 12:12:18;;;;;;;7.23;2.10;;;19.80;89.80;;;;;;5013582;28;20473;-83
2021/08/26 12:14:44;;;;;;;2.07;1.70;;;19.80;89.80;;;;;;5014488;28;20452;-84
2021/08/26 12:17:18;;;;;;;2.50;1.60;;;19.90;90.00;;;;;;5016366;28;20636;-82
2021/08/26 12:19:46;;;;;;;3.90;1.80;;;19.80;89.70;;;;;;5014335;28;20187;-83
2021/08/26 12:22:17;;;;;;;5.57;1.97;;;19.60;90.20;;;;;;5032854;28;20414;-83
2021/08/26 12:24:50;;;;;;;3.40;1.60;;;19.20;90.50;;;;;;4998879;28;20461;-83
2021/08/26 12:27:16;;;;;;;4.27;1.90;;;18.90;91.20;;;;;;4998245;28;20455;-82
2021/08/26 12:29:46;;;;;;;5.00;1.77;;;18.80;91.80;;;;;;4998464;28;20427;-83
2021/08/26 12:32:31;;;;;;;2.60;1.90;;;18.70;92.60;;;;;;4997745;28;20181;-83
2021/08/26 12:35:14;;;;;;;5.20;1.90;;;18.60;92.40;;;;;;4998220;28;20602;-84
2021/08/26 12:38:01;;;;;;;5.23;1.80;;;18.40;92.80;;;;;;5014818;28;20432;-83
2021/08/26 12:40:29;;;;;;;4.57;2.40;;;18.40;93.50;;;;;;5008297;28;20419;-82
2021/08/26 12:43:04;;;;;;;2.47;1.83;;;18.30;94.10;;;;;;5017006;28;20415;-83
2021/08/26 12:45:32;;;;;;;3.90;2.53;;;18.20;94.00;;;;;;5017220;28;20430;-83
2021/08/26 12:47:59;;;;;;;5.73;2.53;;;18.00;97.30;;;;;;5012766;28;20521;-83
2021/08/26 12:50:30;;;;;;;5.33;2.27;;;17.50;97.30;;;;;;4998492;28;20463;-82